Main page
METAR-TAF:

METAR-TAF

Airports :

Oxford, England

Oxford Airport

latitude: 51-50-13N, longitude: 1-19-12W, elevation: 82 m

Current weather observation

The report was made 29 minutes ago, at 08:50 UTC
Wind 9 kt from the Southwest
Temperature 12°C
Humidity 100%
Pressure 1020 hPa
Visibility 10 km or more
Few clouds at a height of 1300 ft
Broken clouds at a height of 1600 ft

METAR: EGTK 290850Z 22009KT 9999 FEW013 BKN016 12/12 Q1020

Time: 10:19 (09:19 UTC)

Forecast

The report was made 1 hour and 16 minutes ago, at 08:03 UTC
Forecast valid from 29 at 09 UTC to 29 at 18 UTC
Wind 9 kt from the Southwest
Visibility 10 km or more
Broken clouds at a height of 1700 ft
Probability 30% :
Temporary
from 29 at 09 UTC to 29 at 12 UTC
Broken clouds at a height of 1200 ft

TAF: EGTK 290803Z 2909/2918 22009KT 9999 BKN017 PROB30 TEMPO 2909/2912 BKN012

Weather observations and forecasts of more than 4000 airports (METAR and TAF reports).

The available stations are represented by yellow and red dots on the map.

Hover mouse over dot to see the name of the station.

Then click to see weather observations and forecasts.

To change the map : click on the green buttons with a black cross to zoom in, on the green button with a dash to zoom out, or on the green arrows for adjacent maps.


METAR-TAF: